Greenland, MI (49929)

6:02 AM EDT on July 12, 2014 (GMT -0400)
RAWS PELKIE MI US (MPIEM4) Elev 759 ft | 46.78 °N, 88.66 °W | Change Station

Current weather conditions updated 49 minutes ago

Clear
Clear
67 °F
Feels Like 67 °F
N
4
Wind Variable Wind from SW
Gusts 8.0 mph

Today is forecast to be nearly the same temperature as yesterday.

Today
High -- | Low -- °F
--% Chance of Precip.
Yesterday
High -- | Low -- °F
Precip. -- in
6:14 AM 9:48 PM
Full, 100% visible
Pressure 29.93 in
Visibility 10.0 miles
Clouds Clear
Dew Point 64 °F
Humidity 91%
Rainfall 0.05 in
Snow Depth Not available.
UV 0 out of 12
Pollen 2.10 out of 12
Air Quality Not available.
Flu Activity Sporadic
METAR KCMX 120953Z AUTO 29011KT 10SM CLR 19/17 A2994 RMK AO2 SLP135 T01940172

More Conditions Fewer Conditions

Pressure 29.93 in
Visibility 10.0 miles
Clouds Clear
Dew Point 64 °F
Humidity 91%
Rainfall 0.05 in
Snow Depth Not available.
UV 0 out of 12
Pollen 2.10 out of 12
Air Quality Not available.
Flu Activity Sporadic
METAR KCMX 120953Z AUTO 29011KT 10SM CLR 19/17 A2994 RMK AO2 SLP135 T01940172

More Conditions Fewer Conditions

10-Day Weather Forecast

Almanac

Astronomy

Jul. 12, 2014 Rise Set
Actual Time 6:14 AM EDT 9:48 PM EDT
Civil Twilight 5:36 AM EDT 10:27 PM EDT
Nautical Twilight 4:45 AM EDT 11:17 PM EDT
Astronomical Twilight 3:36 AM EDT 12:25 AM EDT
Moon 9:43 PM EDT 6:39 AM EDT
Length of Visible Light 16h 50m
Length of Day
15h 34m
Tomorrow will be 1m 38s shorter.
Full, 100% of the Moon is Illuminated
Today
Full
Jul 12
Full
Jul 18
Last Quarter
Jul 26
New
Aug 3
First Quarter

Today's Extremes

State Highs State Lows

Community

WunderPhotos

Upload Photos

1,732,746 photos uploaded!

WunderBlogs® & News

Nearby

Snow Depth

Station Depth Elevation
No new snow has been reported.

Earthquake Activity

City Distance Mag. Time & Date
No recent earthquake activity has been reported nearby.
Minimum magnitude displayed is 2.5.

Coastal Water Temperatures

Place Temperature
No Stations Reporting

Nearby Weather Stations

Station Location Temp. Dew Point Humidity Wind Precip. Elev Updated Type
RAWS KENTON MI, Nisula, MI 61 °F 60 °F 96% South  at  1 mph 0.00 in / hr 1262 ft 4:56 AM EDT MADIS
RAWS PELKIE MI, Pelkie, MI 67 °F 64 °F 91% SW  at  4 mph 0.00 in / hr 759 ft 5:13 AM EDT MADIS
Mountain View Lodges, Silver City, MI / , Ontonagon, MI 65.5 °F 64 °F 95% South  at  0.0 mph 0.00 in / hr 587 ft 6:00 AM EDT Normal

Show More Stations Show Fewer Stations